createdAt,value
2018-02-04T05:01:40.231Z,0
2018-02-04T05:02:05.738Z,0
2018-02-04T05:02:31.208Z,0
2018-02-04T05:02:56.741Z,0
2018-02-04T05:03:22.213Z,0
2018-02-04T05:04:41.140Z,0
2018-02-04T05:05:06.618Z,0
2018-02-04T05:05:32.101Z,0
2018-02-04T05:05:57.587Z,0
2018-02-04T05:06:23.104Z,0
2018-02-04T05:06:48.615Z,0
2018-02-04T05:07:14.127Z,0
2018-02-04T05:07:39.596Z,0
2018-02-04T05:08:05.075Z,0
2018-02-04T05:08:30.536Z,0
2018-02-04T05:08:56.031Z,0
2018-02-04T05:09:21.521Z,0
2018-02-04T05:09:46.998Z,0
2018-02-04T05:10:12.502Z,0
2018-02-04T05:10:37.987Z,0
2018-02-04T05:11:03.487Z,0
2018-02-04T05:11:28.992Z,0
2018-02-04T05:11:54.509Z,0
2018-02-04T05:12:19.995Z,0
2018-02-04T05:12:45.444Z,0
2018-02-04T05:13:10.987Z,0
2018-02-04T05:13:36.450Z,0
2018-02-04T05:15:00.469Z,0
2018-02-04T05:15:25.981Z,0
2018-02-04T05:15:51.490Z,0
2018-02-04T05:16:16.963Z,0
2018-02-04T05:16:42.459Z,0
2018-02-04T05:17:07.936Z,0
2018-02-04T05:17:33.392Z,0
2018-02-04T05:17:58.869Z,0
2018-02-04T05:18:24.412Z,0
2018-02-04T05:18:49.868Z,0
2018-02-04T05:20:04.023Z,0
2018-02-04T05:20:29.529Z,0
2018-02-04T05:20:55.012Z,0
2018-02-04T05:21:20.496Z,0
2018-02-04T05:21:46.011Z,0
2018-02-04T05:22:11.467Z,0
2018-02-04T05:22:36.965Z,0
2018-02-04T05:23:02.481Z,0
2018-02-04T05:23:27.978Z,0
2018-02-04T05:23:53.468Z,0
2018-02-04T05:24:18.975Z,0
2018-02-04T05:24:44.435Z,0
2018-02-04T05:25:09.948Z,0
2018-02-04T05:25:35.433Z,0
2018-02-04T05:26:00.992Z,0
2018-02-04T05:27:14.793Z,0
2018-02-04T05:27:40.283Z,0
2018-02-04T05:28:05.760Z,0
2018-02-04T05:28:31.252Z,0
2018-02-04T05:28:56.760Z,0
2018-02-04T05:29:22.274Z,0
2018-02-04T05:29:47.802Z,0
2018-02-04T05:30:13.252Z,0
2018-02-04T05:30:38.759Z,0
2018-02-04T05:31:47.444Z,0
2018-02-04T05:32:12.957Z,0
2018-02-04T05:32:38.438Z,0
2018-02-04T05:33:03.943Z,0
2018-02-04T05:33:29.423Z,0
2018-02-04T05:33:54.924Z,0
2018-02-04T05:34:20.432Z,0
2018-02-04T05:34:45.909Z,0
2018-02-04T05:35:11.418Z,0
2018-02-04T05:35:36.911Z,0
2018-02-04T05:36:02.416Z,0
2018-02-04T05:36:27.910Z,0
2018-02-04T05:36:53.373Z,0
2018-02-04T05:37:18.862Z,0
2018-02-04T05:37:44.333Z,0
2018-02-04T05:38:09.787Z,0
2018-02-04T05:38:35.267Z,0
2018-02-04T05:39:00.760Z,0
2018-02-04T05:39:26.223Z,0
2018-02-04T05:39:51.684Z,0
2018-02-04T05:40:17.159Z,0
2018-02-04T05:40:42.679Z,0
2018-02-04T05:41:08.156Z,0
2018-02-04T05:41:33.669Z,0
2018-02-04T05:41:59.182Z,0
2018-02-04T05:42:24.733Z,0
2018-02-04T05:42:50.187Z,0
2018-02-04T05:43:15.727Z,0
2018-02-04T05:43:41.225Z,0
2018-02-04T05:44:06.726Z,0
2018-02-04T05:44:32.220Z,0
2018-02-04T05:44:57.736Z,0
2018-02-04T05:45:23.204Z,0
2018-02-04T05:45:48.694Z,0
2018-02-04T05:46:14.156Z,0
2018-02-04T05:46:39.619Z,0
2018-02-04T05:47:05.140Z,0
2018-02-04T05:47:30.630Z,0
2018-02-04T05:47:56.142Z,0
2018-02-04T05:48:21.652Z,0
2018-02-04T05:48:47.137Z,0
2018-02-04T05:49:12.634Z,0
2018-02-04T05:49:38.144Z,0
2018-02-04T05:50:03.636Z,0
2018-02-04T05:50:29.127Z,0
2018-02-04T05:50:54.653Z,0
2018-02-04T05:51:20.132Z,0
2018-02-04T05:51:45.657Z,0
2018-02-04T05:52:11.130Z,0
2018-02-04T05:52:36.660Z,0
2018-02-04T05:53:02.142Z,0
2018-02-04T05:53:27.627Z,0
2018-02-04T05:53:53.094Z,0
2018-02-04T05:54:18.573Z,0
2018-02-04T05:54:44.083Z,0
2018-02-04T05:55:09.561Z,0
2018-02-04T05:56:38.686Z,0
2018-02-04T05:57:04.196Z,0
2018-02-04T05:57:29.682Z,0
2018-02-04T05:57:55.159Z,0
2018-02-04T05:58:20.641Z,0
2018-02-04T05:58:46.143Z,0
2018-02-04T05:59:11.616Z,0
2018-02-04T05:59:37.146Z,0
2018-02-04T06:00:02.667Z,0
2018-02-04T06:00:28.158Z,0
2018-02-04T06:00:53.660Z,0
2018-02-04T06:01:19.176Z,0
2018-02-04T06:01:44.696Z,0
2018-02-04T06:02:10.247Z,0
2018-02-04T06:02:35.719Z,0
2018-02-04T06:03:01.210Z,0
2018-02-04T06:03:26.771Z,0
2018-02-04T06:03:52.300Z,0
2018-02-04T06:04:17.831Z,0
2018-02-04T06:04:43.309Z,0
2018-02-04T06:06:07.386Z,0
2018-02-04T06:06:32.862Z,0
2018-02-04T06:06:58.326Z,0
2018-02-04T06:08:27.484Z,0
2018-02-04T06:08:52.898Z,0
2018-02-04T06:09:18.376Z,0
2018-02-04T06:09:43.836Z,0
2018-02-04T06:10:09.316Z,0
2018-02-04T06:10:34.833Z,0
2018-02-04T06:11:00.317Z,0
2018-02-04T06:11:25.817Z,0
2018-02-04T06:12:49.800Z,0
2018-02-04T06:13:15.286Z,0
2018-02-04T06:13:40.800Z,0
2018-02-04T06:14:06.345Z,0
2018-02-04T06:14:31.881Z,0
2018-02-04T06:14:57.375Z,0
2018-02-04T06:15:22.883Z,0
2018-02-04T06:15:48.313Z,0
2018-02-04T06:16:13.802Z,0
2018-02-04T06:16:39.304Z,0
2018-02-04T06:17:04.778Z,0
2018-02-04T06:17:30.262Z,0
2018-02-04T06:17:55.756Z,0
2018-02-04T06:18:21.247Z,0
2018-02-04T06:18:46.730Z,0
2018-02-04T06:19:12.204Z,0
2018-02-04T06:19:37.733Z,0
2018-02-04T06:20:03.136Z,0
2018-02-04T06:20:28.653Z,0
2018-02-04T06:20:54.198Z,0
2018-02-04T06:21:19.673Z,0
2018-02-04T06:21:45.144Z,0
2018-02-04T06:22:10.616Z,0
2018-02-04T06:22:36.094Z,0
2018-02-04T06:23:01.579Z,0
2018-02-04T06:23:27.083Z,0
2018-02-04T06:24:56.223Z,0
2018-02-04T06:25:21.732Z,0
2018-02-04T06:25:47.215Z,0
2018-02-04T06:26:12.686Z,0
2018-02-04T06:27:41.742Z,0
2018-02-04T06:28:07.205Z,0
2018-02-04T06:28:32.655Z,0
2018-02-04T06:28:58.130Z,0
2018-02-04T06:29:23.594Z,0
2018-02-04T06:30:37.411Z,0
2018-02-04T06:31:02.856Z,0
2018-02-04T06:31:28.311Z,0
2018-02-04T06:31:53.783Z,0
2018-02-04T06:32:19.266Z,0
2018-02-04T06:32:44.766Z,0
2018-02-04T06:33:10.233Z,0
2018-02-04T06:33:35.805Z,0
2018-02-04T06:34:01.229Z,0
2018-02-04T06:34:26.689Z,0
2018-02-04T06:34:52.164Z,0
2018-02-04T06:35:17.729Z,0
2018-02-04T06:35:43.184Z,0
2018-02-04T06:36:08.659Z,0
2018-02-04T06:36:34.128Z,0
2018-02-04T06:36:59.656Z,0
2018-02-04T06:37:25.121Z,0
2018-02-04T06:37:50.616Z,0
2018-02-04T06:38:16.101Z,0
2018-02-04T06:38:41.580Z,0
2018-02-04T06:39:07.129Z,0
2018-02-04T06:39:32.604Z,0
2018-02-04T06:39:58.157Z,0
2018-02-04T06:40:23.568Z,0
2018-02-04T06:40:49.054Z,0
2018-02-04T06:41:14.538Z,0
2018-02-04T06:41:40.032Z,0
2018-02-04T06:42:05.500Z,0
2018-02-04T06:42:30.990Z,0
2018-02-04T06:42:56.505Z,0
2018-02-04T06:43:21.987Z,0
2018-02-04T06:43:47.516Z,0
2018-02-04T06:44:12.976Z,0
2018-02-04T06:44:38.452Z,0
2018-02-04T06:45:03.922Z,0
2018-02-04T06:45:29.436Z,0
2018-02-04T06:45:54.880Z,0
2018-02-04T06:46:20.375Z,0
2018-02-04T06:46:45.895Z,0
2018-02-04T06:47:11.347Z,0
2018-02-04T06:48:25.117Z,0
2018-02-04T06:48:50.611Z,0
2018-02-04T06:49:16.124Z,0
2018-02-04T06:49:41.612Z,0
2018-02-04T06:50:07.151Z,0
2018-02-04T06:50:32.704Z,0
2018-02-04T06:50:58.215Z,0
2018-02-04T06:51:23.689Z,0
2018-02-04T06:51:49.203Z,0
2018-02-04T06:52:14.693Z,0
2018-02-04T06:53:43.794Z,0
2018-02-04T06:54:09.324Z,0
2018-02-04T06:54:34.793Z,0
2018-02-04T06:55:00.268Z,0
2018-02-04T06:56:24.417Z,0
2018-02-04T06:56:49.749Z,0
2018-02-04T06:57:15.193Z,0
2018-02-04T06:57:40.762Z,0
2018-02-04T06:58:06.284Z,0
2018-02-04T06:58:31.787Z,0
2018-02-04T06:58:57.290Z,0
2018-02-04T06:59:22.804Z,0
2018-02-04T06:59:48.325Z,0
2018-02-04T07:00:13.808Z,0
2018-02-04T07:00:39.254Z,0
2018-02-04T07:01:04.739Z,0
2018-02-04T07:01:30.237Z,0
2018-02-04T07:01:55.764Z,0
2018-02-04T07:02:21.304Z,0
2018-02-04T07:02:46.831Z,0
2018-02-04T07:03:12.349Z,0
2018-02-04T07:03:37.825Z,0
2018-02-04T07:04:03.321Z,0
2018-02-04T07:04:28.829Z,0
2018-02-04T07:04:54.345Z,0
2018-02-04T07:05:19.864Z,0
2018-02-04T07:05:45.307Z,0
2018-02-04T07:06:10.793Z,0
2018-02-04T07:06:36.348Z,0
2018-02-04T07:07:01.840Z,0
2018-02-04T07:07:27.308Z,0
2018-02-04T07:07:52.789Z,0
2018-02-04T07:08:18.285Z,0
2018-02-04T07:08:43.724Z,0
2018-02-04T07:09:09.210Z,0
2018-02-04T07:09:34.657Z,0
2018-02-04T07:10:00.174Z,0
2018-02-04T07:10:25.691Z,0
2018-02-04T07:10:51.224Z,0
2018-02-04T07:11:16.742Z,0
2018-02-04T07:11:42.180Z,0
2018-02-04T07:12:07.648Z,0
2018-02-04T07:12:33.136Z,0
2018-02-04T07:12:58.608Z,0
2018-02-04T07:13:24.102Z,5
2018-02-04T07:14:33.182Z,5
2018-02-04T07:14:58.708Z,5
2018-02-04T07:15:24.172Z,5
2018-02-04T07:15:49.660Z,5
2018-02-04T07:16:15.192Z,5
2018-02-04T07:16:40.711Z,5
2018-02-04T07:17:06.205Z,5
2018-02-04T07:17:31.734Z,5
2018-02-04T07:17:57.211Z,5
2018-02-04T07:18:22.693Z,5
2018-02-04T07:18:48.200Z,5
2018-02-04T07:19:13.697Z,5
2018-02-04T07:19:39.192Z,5
2018-02-04T07:20:04.688Z,5
2018-02-04T07:20:30.183Z,5
2018-02-04T07:20:55.642Z,5
2018-02-04T07:21:21.148Z,5
2018-02-04T07:21:46.655Z,5
2018-02-04T07:22:12.186Z,5
2018-02-04T07:22:37.652Z,5
2018-02-04T07:23:03.144Z,5
2018-02-04T07:23:28.663Z,5
2018-02-04T07:23:54.069Z,5
2018-02-04T07:24:19.556Z,5
2018-02-04T07:24:45.129Z,5
2018-02-04T07:25:10.626Z,5
2018-02-04T07:25:36.131Z,5
2018-02-04T07:26:01.660Z,5
2018-02-04T07:26:27.137Z,10
2018-02-04T07:26:52.660Z,10
2018-02-04T07:27:18.152Z,10
2018-02-04T07:27:43.639Z,10
2018-02-04T07:28:09.205Z,10
2018-02-04T07:28:34.722Z,10
2018-02-04T07:29:00.203Z,10
2018-02-04T07:29:25.636Z,10
2018-02-04T07:29:51.133Z,15
2018-02-04T07:30:16.644Z,15
2018-02-04T07:30:42.085Z,15
2018-02-04T07:31:07.539Z,15
2018-02-04T07:31:33.042Z,15
2018-02-04T07:31:58.502Z,15
2018-02-04T07:32:24.004Z,15
2018-02-04T07:32:49.470Z,15
2018-02-04T07:33:14.967Z,15
2018-02-04T07:33:40.440Z,15
2018-02-04T07:35:04.468Z,15
2018-02-04T07:35:29.983Z,15
2018-02-04T07:35:55.390Z,15
2018-02-04T07:37:19.443Z,15
2018-02-04T07:37:44.893Z,15
2018-02-04T07:38:10.411Z,15
2018-02-04T07:38:35.915Z,15
2018-02-04T07:39:01.347Z,15
2018-02-04T07:39:26.844Z,15
2018-02-04T07:39:52.414Z,15
2018-02-04T07:41:11.359Z,15
2018-02-04T07:41:36.881Z,15
2018-02-04T07:42:02.360Z,15
2018-02-04T07:42:27.838Z,15
2018-02-04T07:42:53.418Z,15
2018-02-04T07:43:18.929Z,15
2018-02-04T07:43:44.337Z,15
2018-02-04T07:44:09.817Z,15
2018-02-04T07:44:35.300Z,15
2018-02-04T07:45:00.765Z,15
2018-02-04T07:45:26.234Z,20
2018-02-04T07:45:51.737Z,20
2018-02-04T07:46:17.213Z,20
2018-02-04T07:46:42.690Z,20
2018-02-04T07:47:08.193Z,20
2018-02-04T07:48:17.046Z,25
2018-02-04T07:48:42.505Z,25
2018-02-04T07:49:08.051Z,25
2018-02-04T07:49:33.567Z,25
2018-02-04T07:49:59.029Z,25
2018-02-04T07:50:24.471Z,25
2018-02-04T07:50:49.937Z,25
2018-02-04T07:51:15.446Z,25
2018-02-04T07:51:40.915Z,25
2018-02-04T07:52:49.641Z,25
2018-02-04T07:53:15.105Z,25
2018-02-04T07:53:40.568Z,25
2018-02-04T07:54:06.133Z,25
2018-02-04T07:54:31.579Z,25
2018-02-04T07:54:57.149Z,25
2018-02-04T07:55:22.648Z,25
2018-02-04T07:55:48.150Z,25
2018-02-04T07:56:13.860Z,25
2018-02-04T07:56:39.360Z,25
2018-02-04T07:57:04.812Z,25
2018-02-04T07:57:30.302Z,25
2018-02-04T07:57:55.772Z,25
2018-02-04T07:58:21.349Z,25
2018-02-04T07:58:46.920Z,25
2018-02-04T07:59:12.390Z,25
2018-02-04T07:59:37.872Z,25
2018-02-04T08:00:03.568Z,25
2018-02-04T08:00:28.934Z,25
2018-02-04T08:00:54.447Z,25
2018-02-04T08:01:19.914Z,25
2018-02-04T08:01:45.702Z,25
2018-02-04T08:02:11.160Z,20
2018-02-04T08:02:36.644Z,20
2018-02-04T08:03:02.228Z,20
2018-02-04T08:03:27.741Z,20
2018-02-04T08:03:53.205Z,20
2018-02-04T08:04:18.620Z,20
2018-02-04T08:04:44.114Z,20
2018-02-04T08:05:09.569Z,15
2018-02-04T08:05:35.075Z,15
2018-02-04T08:06:00.547Z,15
2018-02-04T08:06:26.089Z,15
2018-02-04T08:06:51.529Z,15
2018-02-04T08:07:16.958Z,15
2018-02-04T08:07:42.421Z,15
2018-02-04T08:08:07.910Z,15
2018-02-04T08:08:33.403Z,15
2018-02-04T08:08:58.969Z,15
2018-02-04T08:09:24.454Z,15
2018-02-04T08:09:49.971Z,15
2018-02-04T08:10:15.474Z,10
2018-02-04T08:10:40.916Z,10
2018-02-04T08:11:06.398Z,10
2018-02-04T08:11:32.457Z,10
2018-02-04T08:11:57.993Z,10
2018-02-04T08:12:25.375Z,10
2018-02-04T08:12:53.082Z,10
2018-02-04T08:13:19.992Z,10
2018-02-04T08:13:45.643Z,10
2018-02-04T08:14:11.254Z,10
2018-02-04T08:14:36.729Z,10
2018-02-04T08:15:02.200Z,15
2018-02-04T08:15:28.050Z,15
2018-02-04T08:15:53.956Z,15
2018-02-04T08:16:19.683Z,15
2018-02-04T08:16:45.161Z,15
2018-02-04T08:17:10.661Z,15
2018-02-04T08:17:36.238Z,15
2018-02-04T08:18:01.695Z,15
2018-02-04T08:18:27.134Z,15
2018-02-04T08:19:35.962Z,15
2018-02-04T08:20:01.550Z,15
2018-02-04T08:20:27.043Z,15
2018-02-04T08:20:52.564Z,15
2018-02-04T08:21:18.106Z,15
2018-02-04T08:21:43.726Z,15
2018-02-04T08:22:09.225Z,15
2018-02-04T08:22:34.659Z,15
2018-02-04T08:23:00.192Z,15
2018-02-04T08:23:25.658Z,15
2018-02-04T08:23:51.190Z,15
2018-02-04T08:24:16.685Z,15
2018-02-04T08:24:42.196Z,15
2018-02-04T08:25:07.786Z,15
2018-02-04T08:25:33.226Z,15
2018-02-04T08:25:58.635Z,15
2018-02-04T08:26:24.132Z,15
2018-02-04T08:26:49.662Z,15
2018-02-04T08:27:15.082Z,15
2018-02-04T08:27:40.614Z,15
2018-02-04T08:28:06.081Z,15
2018-02-04T08:28:31.539Z,15
2018-02-04T08:28:56.987Z,15
2018-02-04T08:29:22.456Z,15
2018-02-04T08:29:48.042Z,15
2018-02-04T08:30:13.397Z,15
2018-02-04T08:30:38.864Z,15
2018-02-04T08:31:04.365Z,15
2018-02-04T08:31:29.898Z,15
2018-02-04T08:31:55.361Z,15
2018-02-04T08:32:20.905Z,15
2018-02-04T08:32:46.380Z,15
2018-02-04T08:33:11.862Z,15
2018-02-04T08:33:37.368Z,15
2018-02-04T08:34:56.311Z,15
2018-02-04T08:35:21.777Z,15
2018-02-04T08:35:47.229Z,15
2018-02-04T08:36:12.710Z,15
2018-02-04T08:36:38.202Z,15
2018-02-04T08:37:03.682Z,15
2018-02-04T08:37:29.204Z,15
2018-02-04T08:37:54.647Z,15
2018-02-04T08:38:20.121Z,15
2018-02-04T08:38:45.610Z,15
2018-02-04T08:39:11.049Z,15
2018-02-04T08:39:36.514Z,15
2018-02-04T08:40:02.021Z,15
2018-02-04T08:40:27.482Z,15
2018-02-04T08:40:53.004Z,15
2018-02-04T08:41:18.507Z,15
2018-02-04T08:41:43.989Z,15
2018-02-04T08:42:10.079Z,15
2018-02-04T08:42:35.534Z,15
2018-02-04T08:43:01.017Z,15
2018-02-04T08:43:26.486Z,15
2018-02-04T08:43:51.995Z,15
2018-02-04T08:44:17.519Z,15
2018-02-04T08:44:43.003Z,15
2018-02-04T08:45:08.503Z,15
2018-02-04T08:45:34.007Z,15
2018-02-04T08:45:59.462Z,15
2018-02-04T08:46:24.929Z,15
2018-02-04T08:46:50.420Z,15
2018-02-04T08:48:04.441Z,15
2018-02-04T08:48:30.027Z,15
2018-02-04T08:48:55.500Z,15
2018-02-04T08:49:21.594Z,15
2018-02-04T08:50:31.084Z,15
2018-02-04T08:50:56.555Z,15
2018-02-04T08:51:22.076Z,15
2018-02-04T08:51:47.513Z,15
2018-02-04T08:52:13.876Z,15
2018-02-04T08:53:28.124Z,15
2018-02-04T08:53:53.973Z,15
2018-02-04T08:54:19.512Z,15
2018-02-04T08:54:44.884Z,15
2018-02-04T08:55:10.406Z,15
2018-02-04T08:55:35.915Z,15
2018-02-04T08:56:01.347Z,15
2018-02-04T08:56:26.796Z,15
2018-02-04T08:56:52.387Z,15
2018-02-04T08:57:17.964Z,15
2018-02-04T08:57:43.467Z,15
2018-02-04T08:58:08.970Z,15
2018-02-04T08:58:34.481Z,20
2018-02-04T08:58:59.964Z,20
2018-02-04T08:59:25.480Z,20
2018-02-04T08:59:50.898Z,20
2018-02-04T09:00:16.449Z,20
2018-02-04T09:00:41.880Z,20
2018-02-04T09:01:07.370Z,20
2018-02-04T09:01:32.873Z,25
2018-02-04T09:01:58.410Z,25
2018-02-04T09:02:23.851Z,25
2018-02-04T09:02:49.312Z,25
2018-02-04T09:03:14.815Z,25
2018-02-04T09:03:40.296Z,25
2018-02-04T09:04:05.794Z,25
2018-02-04T09:04:31.320Z,25
2018-02-04T09:04:56.785Z,30
2018-02-04T09:05:22.303Z,30
2018-02-04T09:05:47.781Z,30
2018-02-04T09:06:13.301Z,30
2018-02-04T09:06:38.697Z,30
2018-02-04T09:07:04.185Z,35
2018-02-04T09:07:29.645Z,35
2018-02-04T09:07:55.156Z,35
2018-02-04T09:08:20.620Z,40
2018-02-04T09:09:34.454Z,45
2018-02-04T09:09:59.920Z,45
2018-02-04T09:11:24.010Z,50
2018-02-04T09:11:50.057Z,50
2018-02-04T09:12:15.437Z,50
2018-02-04T09:12:40.983Z,50
2018-02-04T09:13:06.440Z,50
2018-02-04T09:13:32.536Z,55
2018-02-04T09:13:58.082Z,55
2018-02-04T09:14:23.429Z,55
2018-02-04T09:14:48.998Z,55
2018-02-04T09:15:14.474Z,55
2018-02-04T09:15:40.505Z,60
2018-02-04T09:16:06.124Z,60
2018-02-04T09:16:31.590Z,60
2018-02-04T09:16:57.051Z,60
2018-02-04T09:17:22.899Z,60
2018-02-04T09:17:48.834Z,60
2018-02-04T09:18:14.492Z,60
2018-02-04T09:18:39.997Z,60
2018-02-04T09:19:05.785Z,60
2018-02-04T09:19:31.688Z,65
2018-02-04T09:19:57.087Z,65
2018-02-04T09:20:22.595Z,65
2018-02-04T09:20:48.154Z,70
2018-02-04T09:21:13.677Z,70
2018-02-04T09:21:39.139Z,70
2018-02-04T09:22:04.597Z,70
2018-02-04T09:22:30.095Z,70
2018-02-04T09:22:55.912Z,70
2018-02-04T09:23:21.385Z,70
2018-02-04T09:23:46.864Z,70
2018-02-04T09:24:12.406Z,70
2018-02-04T09:24:37.847Z,75
2018-02-04T09:25:03.335Z,75
2018-02-04T09:25:28.867Z,75
2018-02-04T09:25:54.504Z,80
2018-02-04T09:26:20.024Z,80
2018-02-04T09:26:45.463Z,85
2018-02-04T09:27:11.025Z,85
2018-02-04T09:27:36.434Z,90
2018-02-04T09:28:01.907Z,90
2018-02-04T09:28:27.373Z,90
2018-02-04T09:28:52.880Z,90
2018-02-04T09:29:18.368Z,95
2018-02-04T09:29:43.853Z,95
2018-02-04T09:30:09.318Z,90
2018-02-04T09:30:34.834Z,90
2018-02-04T09:31:00.292Z,90
2018-02-04T09:31:25.794Z,90
2018-02-04T09:31:51.346Z,90
2018-02-04T09:32:16.968Z,90
2018-02-04T09:32:42.712Z,90
2018-02-04T09:33:08.337Z,95
2018-02-04T09:33:33.681Z,95
2018-02-04T09:33:59.209Z,95
2018-02-04T09:34:24.762Z,95
2018-02-04T09:34:50.681Z,95
2018-02-04T09:35:16.209Z,100
2018-02-04T09:35:41.704Z,100
2018-02-04T09:36:07.261Z,100
2018-02-04T09:36:32.699Z,105
2018-02-04T09:36:58.140Z,105
2018-02-04T09:37:23.593Z,105
2018-02-04T09:37:49.077Z,105
2018-02-04T09:38:14.551Z,105
2018-02-04T09:38:40.035Z,110
2018-02-04T09:39:05.520Z,110
2018-02-04T09:39:31.061Z,110
2018-02-04T09:39:56.461Z,110
2018-02-04T09:40:21.947Z,115
2018-02-04T09:40:47.445Z,115
2018-02-04T09:41:12.892Z,115
2018-02-04T09:41:38.393Z,115
2018-02-04T09:42:03.883Z,115
2018-02-04T09:42:29.398Z,115
2018-02-04T09:42:54.857Z,120
2018-02-04T09:43:20.362Z,120
2018-02-04T09:43:45.869Z,120
2018-02-04T09:44:11.372Z,120
2018-02-04T09:45:30.247Z,115
2018-02-04T09:45:55.741Z,115
2018-02-04T09:46:21.207Z,115
2018-02-04T09:46:46.786Z,115
2018-02-04T09:47:12.201Z,115
2018-02-04T09:47:37.671Z,115
2018-02-04T09:48:03.120Z,115
2018-02-04T09:48:28.613Z,115
2018-02-04T09:48:54.061Z,120
2018-02-04T09:49:19.548Z,120
2018-02-04T09:49:45.015Z,120
2018-02-04T09:50:10.507Z,120
2018-02-04T09:50:36.006Z,120
2018-02-04T09:51:01.515Z,120
2018-02-04T09:51:26.969Z,120
2018-02-04T09:51:52.461Z,125
2018-02-04T09:52:17.952Z,125
2018-02-04T09:52:43.443Z,130
2018-02-04T09:54:07.376Z,140
2018-02-04T09:54:32.878Z,140
2018-02-04T09:54:58.370Z,145
2018-02-04T09:55:23.835Z,145
2018-02-04T09:55:49.292Z,145
2018-02-04T09:56:14.757Z,145
2018-02-04T09:56:40.203Z,145
2018-02-04T09:57:05.717Z,145
2018-02-04T09:57:31.205Z,150
2018-02-04T09:57:56.679Z,150
2018-02-04T09:58:22.169Z,150
2018-02-04T09:58:47.673Z,150
2018-02-04T09:59:13.104Z,150
2018-02-04T09:59:38.592Z,150
2018-02-04T10:00:04.084Z,150
2018-02-04T10:00:29.560Z,150
2018-02-04T10:00:55.095Z,150
2018-02-04T10:01:20.595Z,155
2018-02-04T10:01:46.235Z,155
2018-02-04T10:02:11.683Z,155
2018-02-04T10:02:37.179Z,155
2018-02-04T10:03:02.738Z,155
2018-02-04T10:03:28.174Z,155
2018-02-04T10:03:53.663Z,155
2018-02-04T10:04:19.145Z,150
2018-02-04T10:04:44.704Z,155
2018-02-04T10:05:10.210Z,155
2018-02-04T10:05:35.709Z,160
2018-02-04T10:06:01.168Z,160
2018-02-04T10:06:26.642Z,160
2018-02-04T10:06:52.329Z,160
2018-02-04T10:07:17.812Z,165
2018-02-04T10:07:43.301Z,165
2018-02-04T10:08:08.743Z,170
2018-02-04T10:08:34.212Z,170
2018-02-04T10:08:59.698Z,175
2018-02-04T10:09:25.217Z,170
2018-02-04T10:09:50.710Z,175
2018-02-04T10:10:16.207Z,170
2018-02-04T10:10:41.728Z,165
2018-02-04T10:11:07.584Z,160
2018-02-04T10:11:33.024Z,160
2018-02-04T10:11:59.754Z,160
2018-02-04T10:12:25.285Z,160
2018-02-04T10:12:50.779Z,160
2018-02-04T10:13:16.355Z,160
2018-02-04T10:13:41.902Z,160
2018-02-04T10:14:07.420Z,150
2018-02-04T10:14:33.388Z,145
2018-02-04T10:14:59.151Z,135
2018-02-04T10:15:25.474Z,135
2018-02-04T10:15:51.087Z,130
2018-02-04T10:16:16.622Z,135
2018-02-04T10:16:42.449Z,140
2018-02-04T10:18:06.520Z,115
2018-02-04T10:18:32.034Z,115
2018-02-04T10:18:57.473Z,115
2018-02-04T10:19:22.995Z,115
2018-02-04T10:19:48.450Z,115
2018-02-04T10:21:02.356Z,110
2018-02-04T10:21:27.830Z,110
2018-02-04T10:21:53.445Z,105
2018-02-04T10:22:18.984Z,110
2018-02-04T10:22:44.426Z,120
2018-02-04T10:23:09.867Z,135
2018-02-04T10:23:35.406Z,150
2018-02-04T10:24:01.999Z,160
2018-02-04T10:24:27.489Z,140
2018-02-04T10:24:53.446Z,140
2018-02-04T10:25:19.453Z,145
2018-02-04T10:25:44.944Z,160
2018-02-04T10:26:10.819Z,175
2018-02-04T10:26:36.626Z,175
2018-02-04T10:27:02.222Z,155
2018-02-04T10:27:28.151Z,155
2018-02-04T10:27:53.691Z,165
2018-02-04T10:28:19.450Z,180
2018-02-04T10:28:45.012Z,205
2018-02-04T10:29:10.567Z,220
2018-02-04T10:29:36.078Z,230
2018-02-04T10:30:01.582Z,245
2018-02-04T10:30:27.331Z,220
2018-02-04T10:30:52.796Z,205
2018-02-04T10:31:18.221Z,175
2018-02-04T10:31:43.839Z,155
2018-02-04T10:32:09.257Z,150
2018-02-04T10:32:34.747Z,145
2018-02-04T10:33:53.752Z,150
2018-02-04T10:34:19.333Z,155
2018-02-04T10:34:44.793Z,165
2018-02-04T10:35:10.280Z,175
2018-02-04T10:35:35.755Z,195
2018-02-04T10:36:01.230Z,200
2018-02-04T10:36:26.788Z,180
2018-02-04T10:36:52.237Z,150
2018-02-04T10:37:18.102Z,135
2018-02-04T10:37:43.479Z,135
2018-02-04T10:38:09.038Z,135
2018-02-04T10:38:34.575Z,135
2018-02-04T10:39:00.008Z,135
2018-02-04T10:39:25.506Z,140
2018-02-04T10:39:50.986Z,140
2018-02-04T10:40:16.432Z,140
2018-02-04T10:40:41.882Z,145
2018-02-04T10:41:07.643Z,145
2018-02-04T10:41:33.647Z,145
2018-02-04T10:41:59.074Z,145
2018-02-04T10:42:24.554Z,145
2018-02-04T10:42:50.130Z,145
2018-02-04T10:43:15.608Z,150
2018-02-04T10:43:41.146Z,160
2018-02-04T10:44:06.647Z,185
2018-02-04T10:44:32.141Z,190
2018-02-04T10:44:57.608Z,205
2018-02-04T10:45:23.120Z,210
2018-02-04T10:45:48.810Z,215
2018-02-04T10:46:14.233Z,215
2018-02-04T10:46:39.824Z,195
2018-02-04T10:47:05.296Z,175
2018-02-04T10:47:30.722Z,165
2018-02-04T10:47:56.167Z,155
2018-02-04T10:48:21.634Z,145
2018-02-04T10:48:47.125Z,130
2018-02-04T10:49:12.684Z,115
2018-02-04T10:49:38.260Z,100
2018-02-04T10:50:03.581Z,95
2018-02-04T10:50:29.093Z,100
2018-02-04T10:50:54.591Z,110
2018-02-04T10:51:20.183Z,125
2018-02-04T10:51:45.577Z,135
2018-02-04T10:52:11.044Z,150
2018-02-04T10:52:36.502Z,165
2018-02-04T10:53:02.010Z,175
2018-02-04T10:53:27.455Z,190
2018-02-04T10:53:52.943Z,200
2018-02-04T10:54:18.533Z,205
2018-02-04T10:54:43.973Z,205
2018-02-04T10:55:09.379Z,205
2018-02-04T10:55:34.956Z,215
2018-02-04T10:56:00.400Z,220
2018-02-04T10:56:25.910Z,230
2018-02-04T10:56:51.357Z,240
2018-02-04T10:57:16.772Z,260
2018-02-04T10:57:42.262Z,275
2018-02-04T10:58:07.730Z,280
2018-02-04T10:58:33.227Z,285
2018-02-04T10:58:58.670Z,300
2018-02-04T10:59:24.146Z,295
2018-02-04T10:59:49.600Z,295
2018-02-04T11:00:15.122Z,290
2018-02-04T11:00:40.550Z,275
2018-02-04T11:01:06.074Z,265
2018-02-04T11:01:31.503Z,255
2018-02-04T11:01:56.990Z,240
2018-02-04T11:02:22.451Z,220
2018-02-04T11:02:47.914Z,215
2018-02-04T11:03:13.363Z,205
2018-02-04T11:03:38.846Z,205
2018-02-04T11:04:04.291Z,200
2018-02-04T11:04:29.762Z,190
2018-02-04T11:04:55.208Z,175
2018-02-04T11:05:20.670Z,180
2018-02-04T11:05:46.135Z,185
2018-02-04T11:06:11.588Z,195
2018-02-04T11:06:37.047Z,210
2018-02-04T11:07:02.507Z,225
2018-02-04T11:07:27.954Z,240
2018-02-04T11:07:53.433Z,255
2018-02-04T11:08:18.915Z,260
2018-02-04T11:08:44.375Z,260
2018-02-04T11:09:09.871Z,255
2018-02-04T11:09:35.322Z,245
2018-02-04T11:10:00.766Z,230
2018-02-04T11:10:26.244Z,220
2018-02-04T11:10:51.682Z,215
2018-02-04T11:11:17.150Z,205
2018-02-04T11:11:42.645Z,195
2018-02-04T11:12:08.091Z,185
2018-02-04T11:12:33.545Z,175
2018-02-04T11:12:59.082Z,160
2018-02-04T11:13:24.533Z,145
2018-02-04T11:13:50.067Z,135
2018-02-04T11:14:15.454Z,125
2018-02-04T11:14:41.145Z,115
2018-02-04T11:15:06.593Z,110
2018-02-04T11:15:32.094Z,100
2018-02-04T11:15:57.464Z,95
2018-02-04T11:16:22.978Z,85
2018-02-04T11:16:48.480Z,80
2018-02-04T11:17:14.065Z,75
2018-02-04T11:17:39.519Z,75
2018-02-04T11:18:04.980Z,70
2018-02-04T11:18:30.426Z,65
2018-02-04T11:18:55.887Z,60
2018-02-04T11:19:21.338Z,55
2018-02-04T11:19:46.900Z,55
2018-02-04T11:20:12.394Z,50
2018-02-04T11:20:37.883Z,50
2018-02-04T11:21:03.335Z,50
2018-02-04T11:21:28.789Z,50
2018-02-04T11:21:54.273Z,50
2018-02-04T11:22:19.710Z,55
2018-02-04T11:22:45.190Z,55
2018-02-04T11:23:10.660Z,50
2018-02-04T11:23:36.106Z,50
2018-02-04T11:24:01.572Z,55
2018-02-04T11:24:27.029Z,55
2018-02-04T11:24:52.484Z,55
2018-02-04T11:25:17.989Z,55
2018-02-04T11:25:43.432Z,55
2018-02-04T11:26:08.882Z,50
2018-02-04T11:26:34.333Z,50
2018-02-04T11:26:59.809Z,45
2018-02-04T11:27:25.251Z,45
2018-02-04T11:27:50.715Z,50
2018-02-04T11:28:16.191Z,50
2018-02-04T11:28:41.680Z,50
2018-02-04T11:29:07.167Z,50
2018-02-04T11:29:32.630Z,50
2018-02-04T11:29:58.082Z,50
2018-02-04T11:30:23.594Z,50
2018-02-04T11:30:49.104Z,55
2018-02-04T11:32:13.131Z,60
2018-02-04T11:32:38.636Z,60
2018-02-04T11:33:04.104Z,60
2018-02-04T11:33:29.571Z,60
2018-02-04T11:33:55.052Z,65
2018-02-04T11:34:20.499Z,65
2018-02-04T11:34:45.954Z,65
2018-02-04T11:35:11.443Z,70
2018-02-04T11:35:37.047Z,70
2018-02-04T11:36:02.575Z,70
2018-02-04T11:36:28.051Z,75
2018-02-04T11:36:53.646Z,75